sensor_id;sensor_type;location;lat;lon;timestamp;pressure;altitude;pressure_sealevel;temperature;humidity
73316;BME280;61545;53.726;-0.444;2024-03-23T00:55:11;1006.9;;;5.6;100.0
73316;BME280;61545;53.726;-0.444;2024-03-23T01:00:12;1006.9;;;5.7;100.0
73316;BME280;61545;53.726;-0.444;2024-03-23T01:05:11;1006.9;;;unknown;100.0
73316;BME280;61545;53.726;-0.444;2024-03-23T01:10:11;1006.9;;;5.5;100.0
73316;BME280;61545;53.726;-0.444;2024-03-23T01:15:11;1006.9;;;5.6;100.0
73316;BME280;61545;53.726;-0.444;2024-03-23T01:20:11;1006.8;;;5.7;100.0
73316;BME280;61545;53.726;-0.444;2024-03-23T01:25:11;1006.8;;;5.6;100.0
73316;BME280;61545;53.726;-0.444;2024-03-23T01:30:12;1006.6;;;5.6;100.0
73316;BME280;61545;53.726;-0.444;2024-03-23T01:35:11;1006.6;;;5.5;100.0
73316;BME280;61545;53.726;-0.444;2024-03-23T01:40:12;1006.5;;;5.5;100.0
73316;BME280;61545;53.726;-0.444;2024-03-23T01:45:11;1006.5;;;5.5;100.0
73316;BME280;61545;53.726;-0.444;2024-03-23T01:50:11;1006.4;;;5.5;100.0
73316;BME280;61545;53.726;-0.444;2024-03-23T01:55:11;1006.4;;;5.4;100.0
73316;BME280;61545;53.726;-0.444;2024-03-23T02:00:12;1006.3;;;5.4;100.0
73316;BME280;61545;53.726;-0.444;2024-03-23T02:05:11;1006.3;;;5.4;100.0
73316;BME280;61545;53.726;-0.444;2024-03-23T02:10:11;1006.3;;;5.5;100.0
73316;BME280;61545;53.726;-0.444;2024-03-23T02:15:11;1006.1;;;5.4;100.0
73316;BME280;61545;53.726;-0.444;2024-03-23T02:20:11;1006.0;;;5.4;100.0
73316;BME280;61545;53.726;-0.444;2024-03-23T02:25:11;1006.0;;;5.3;100.0
73316;BME280;61545;53.726;-0.444;2024-03-23T02:30:11;1005.9;;;5.3;100.0
73316;BME280;61545;53.726;-0.444;2024-03-23T02:35:11;1005.8;;;5.3;100.0
73316;BME280;61545;53.726;-0.444;2024-03-23T02:40:11;1005.8;;;5.4;100.0
73316;BME280;61545;53.726;-0.444;2024-03-23T02:45:11;1005.7;;;5.3;100.0
73316;BME280;61545;53.726;-0.444;2024-03-23T02:50:11;1005.6;;;5.3;100.0
73316;BME280;61545;53.726;-0.444;2024-03-23T02:55:11;1005.6;;;5.3;100.0
73316;BME280;61545;53.726;-0.444;2024-03-23T03:00:12;1005.5;;;5.2;100.0
73316;BME280;61545;53.726;-0.444;2024-03-23T03:05:11;1005.4;;;5.3;100.0
73316;BME280;61545;53.726;-0.444;2024-03-23T03:10:11;1005.3;;;5.2;100.0
73316;BME280;61545;53.726;-0.444;2024-03-23T03:15:11;1005.3;;;5.3;100.0
73316;BME280;61545;53.726;-0.444;2024-03-23T03:20:11;1005.2;;;5.1;100.0
73316;BME280;61545;53.726;-0.444;2024-03-23T03:25:11;1005.1;;;5.1;100.0
73316;BME280;61545;53.726;-0.444;2024-03-23T03:30:12;1005.1;;;5.1;100.0
73316;BME280;61545;53.726;-0.444;2024-03-23T03:35:11;1005.1;;;5.2;100.0
73316;BME280;61545;53.726;-0.444;2024-03-23T03:40:12;1005.0;;;5.2;100.0
73316;BME280;61545;53.726;-0.444;2024-03-23T03:45:11;1005.0;;;5.2;100.0
73316;BME280;61545;53.726;-0.444;2024-03-23T03:50:11;1004.9;;;5.2;100.0
73316;BME280;61545;53.726;-0.444;2024-03-23T03:55:13;1005.0;;;5.0;100.0
73316;BME280;61545;53.726;-0.444;2024-03-23T04:00:12;1004.9;;;5.0;100.0
73316;BME280;61545;53.726;-0.444;2024-03-23T04:05:11;1004.9;;;5.2;100.0
73316;BME280;61545;53.726;-0.444;2024-03-23T04:10:11;1004.8;;;5.2;100.0
73316;BME280;61545;53.726;-0.444;2024-03-23T04:15:11;1004.8;;;5.2;100.0
73316;BME280;61545;53.726;-0.444;2024-03-23T04:20:11;1004.7;;;5.3;100.0
73316;BME280;61545;53.726;-0.444;2024-03-23T04:25:12;1004.7;;;5.3;100.0
73316;BME280;61545;53.726;-0.444;2024-03-23T04:30:12;1004.6;;;5.3;100.0
73316;BME280;61545;53.726;-0.444;2024-03-23T04:35:11;1004.4;;;5.1;100.0
73316;BME280;61545;53.726;-0.444;2024-03-23T04:40:12;1004.5;;;5.1;100.0
73316;BME280;61545;53.726;-0.444;2024-03-23T04:45:11;1004.4;;;5.2;100.0
73316;BME280;61545;53.726;-0.444;2024-03-23T04:50:11;1004.3;;;5.2;100.0
73316;BME280;61545;53.726;-0.444;2024-03-23T04:55:11;1004.3;;;5.1;100.0
73316;BME280;61545;53.726;-0.444;2024-03-23T05:00:12;1004.2;;;5.2;100.0
73316;BME280;61545;53.726;-0.444;2024-03-23T05:05:12;1004.2;;;5.1;100.0
73316;BME280;61545;53.726;-0.444;2024-03-23T05:10:12;1004.2;;;5.2;100.0
73316;BME280;61545;53.726;-0.444;2024-03-23T05:15:12;1004.2;;;5.2;100.0
73316;BME280;61545;53.726;-0.444;2024-03-23T05:20:11;1004.3;;;5.1;100.0
73316;BME280;61545;53.726;-0.444;2024-03-23T05:25:12;1004.2;;;5.1;100.0
73316;BME280;61545;53.726;-0.444;2024-03-23T05:30:12;1004.1;;;5.2;100.0
73316;BME280;61545;53.726;-0.444;2024-03-23T05:35:11;1004.0;;;5.2;100.0
73316;BME280;61545;53.726;-0.444;2024-03-23T05:40:11;1003.9;;;5.1;100.0
73316;BME280;61545;53.726;-0.444;2024-03-23T05:45:12;1003.9;;;5.0;100.0
73316;BME280;61545;53.726;-0.444;2024-03-23T05:50:12;1003.9;;;5.0;100.0
73316;BME280;61545;53.726;-0.444;2024-03-23T05:55:12;1003.9;;;5.0;100.0
73316;BME280;61545;53.726;-0.444;2024-03-23T06:00:12;1003.8;;;5.0;100.0
73316;BME280;61545;53.726;-0.444;2024-03-23T06:05:12;1003.8;;;5.0;100.0
73316;BME280;61545;53.726;-0.444;2024-03-23T06:10:12;1004.0;;;5.0;100.0
73316;BME280;61545;53.726;-0.444;2024-03-23T06:15:12;1004.0;;;4.8;100.0
73316;BME280;61545;53.726;-0.444;2024-03-23T06:20:12;1003.9;;;4.8;100.0
73316;BME280;61545;53.726;-0.444;2024-03-23T06:25:12;1003.8;;;5.3;100.0
73316;BME280;61545;53.726;-0.444;2024-03-23T06:30:12;1003.8;;;5.4;100.0
73316;BME280;61545;53.726;-0.444;2024-03-23T06:35:12;1003.8;;;5.8;100.0
73316;BME280;61545;53.726;-0.444;2024-03-23T06:40:12;1003.8;;;5.8;100.0
73316;BME280;61545;53.726;-0.444;2024-03-23T06:45:12;1003.7;;;5.9;100.0
73316;BME280;61545;53.726;-0.444;2024-03-23T06:50:12;1003.8;;;5.6;100.0
73316;BME280;61545;53.726;-0.444;2024-03-23T06:55:12;1003.8;;;5.9;100.0
73316;BME280;61545;53.726;-0.444;2024-03-23T07:00:12;1003.8;;;6.0;100.0
73316;BME280;61545;53.726;-0.444;2024-03-23T07:05:12;1003.7;;;6.2;100.0
73316;BME280;61545;53.726;-0.444;2024-03-23T07:10:12;1003.8;;;6.4;100.0
73316;BME280;61545;53.726;-0.444;2024-03-23T07:15:12;1003.6;;;6.8;100.0
73316;BME280;61545;53.726;-0.444;2024-03-23T07:20:12;1003.7;;;6.3;100.0
73316;BME280;61545;53.726;-0.444;2024-03-23T07:25:12;1003.8;;;6.5;100.0
73316;BME280;61545;53.726;-0.444;2024-03-23T07:30:12;1003.6;;;7.3;100.0
73316;BME280;61545;53.726;-0.444;2024-03-23T07:35:12;1003.6;;;7.0;100.0
73316;BME280;61545;53.726;-0.444;2024-03-23T07:40:12;1003.5;;;6.7;100.0
73316;BME280;61545;53.726;-0.444;2024-03-23T07:45:12;1003.5;;;7.3;100.0
73316;BME280;61545;53.726;-0.444;2024-03-23T07:50:12;1003.5;;;6.8;100.0
73316;BME280;61545;53.726;-0.444;2024-03-23T07:55:12;1003.4;;;6.7;100.0
73316;BME280;61545;53.726;-0.444;2024-03-23T08:00:12;1003.4;;;6.8;100.0
73316;BME280;61545;53.726;-0.444;2024-03-23T08:05:12;1003.3;;;7.7;100.0
73316;BME280;61545;53.726;-0.444;2024-03-23T08:10:12;1003.2;;;7.5;100.0
73316;BME280;61545;53.726;-0.444;2024-03-23T08:15:12;1003.2;;;7.6;100.0
73316;BME280;61545;53.726;-0.444;2024-03-23T08:20:12;1003.3;;;7.3;100.0
73316;BME280;61545;53.726;-0.444;2024-03-23T08:25:12;1003.2;;;7.7;100.0
73316;BME280;61545;53.726;-0.444;2024-03-23T08:30:12;1003.2;;;7.5;100.0
73316;BME280;61545;53.726;-0.444;2024-03-23T08:35:12;1003.0;;;8.5;100.0
73316;BME280;61545;53.726;-0.444;2024-03-23T08:40:12;1003.0;;;8.4;100.0
73316;BME280;61545;53.726;-0.444;2024-03-23T08:45:12;1003.1;;;8.2;100.0
73316;BME280;61545;53.726;-0.444;2024-03-23T08:50:12;1003.1;;;8.0;100.0
73316;BME280;61545;53.726;-0.444;2024-03-23T08:55:12;1003.1;;;8.1;100.0
73316;BME280;61545;53.726;-0.444;2024-03-23T09:00:13;1003.2;;;7.3;100.0
73316;BME280;61545;53.726;-0.444;2024-03-23T09:05:12;1003.2;;;7.4;100.0
73316;BME280;61545;53.726;-0.444;2024-03-23T09:10:12;1003.3;;;8.4;100.0
73316;BME280;61545;53.726;-0.444;2024-03-23T09:15:12;1003.1;;;7.8;100.0
73316;BME280;61545;53.726;-0.444;2024-03-23T09:20:12;1003.1;;;8.3;100.0
73316;BME280;61545;53.726;-0.444;2024-03-23T09:25:12;1003.0;;;8.4;100.0
73316;BME280;61545;53.726;-0.444;2024-03-23T09:30:12;1003.0;;;8.2;100.0
73316;BME280;61545;53.726;-0.444;2024-03-23T09:35:11;1003.0;;;8.1;100.0
73316;BME280;61545;53.726;-0.444;2024-03-23T09:40:12;1002.9;;;7.9;100.0
73316;BME280;61545;53.726;-0.444;2024-03-23T09:45:17;1003.0;;;7.5;100.0
73316;BME280;61545;53.726;-0.444;2024-03-23T09:50:12;1002.9;;;7.4;100.0
73316;BME280;61545;53.726;-0.444;2024-03-23T09:55:11;1002.9;;;7.3;100.0
73316;BME280;61545;53.726;-0.444;2024-03-23T10:00:12;1002.8;;;7.7;100.0
73316;BME280;61545;53.726;-0.444;2024-03-23T10:05:27;1002.8;;;7.8;100.0
73316;BME280;61545;53.726;-0.444;2024-03-23T10:10:12;1002.7;;;8.0;100.0
73316;BME280;61545;53.726;-0.444;2024-03-23T10:15:15;1002.7;;;8.0;100.0
73316;BME280;61545;53.726;-0.444;2024-03-23T10:20:12;1002.6;;;8.2;100.0
73316;BME280;61545;53.726;-0.444;2024-03-23T10:25:12;1002.4;;;8.2;100.0
73316;BME280;61545;53.726;-0.444;2024-03-23T10:30:13;1002.4;;;8.1;100.0
73316;BME280;61545;53.726;-0.444;2024-03-23T10:35:15;1002.5;;;7.8;100.0
73316;BME280;61545;53.726;-0.444;2024-03-23T10:40:12;1002.5;;;7.5;100.0
73316;BME280;61545;53.726;-0.444;2024-03-23T10:45:11;1002.5;;;8.2;100.0
73316;BME280;61545;53.726;-0.444;2024-03-23T10:50:11;1002.4;;;8.4;100.0
73316;BME280;61545;53.726;-0.444;2024-03-23T10:55:12;1002.5;;;8.4;100.0
73316;BME280;61545;53.726;-0.444;2024-03-23T11:00:12;1002.5;;;8.1;100.0
73316;BME280;61545;53.726;-0.444;2024-03-23T11:05:28;1002.4;;;8.0;100.0
73316;BME280;61545;53.726;-0.444;2024-03-23T11:10:25;1002.4;;;7.9;100.0
73316;BME280;61545;53.726;-0.444;2024-03-23T11:15:11;1002.2;;;8.0;100.0
73316;BME280;61545;53.726;-0.444;2024-03-23T11:20:11;1002.1;;;8.6;100.0
73316;BME280;61545;53.726;-0.444;2024-03-23T11:25:13;1002.0;;;8.5;100.0
73316;BME280;61545;53.726;-0.444;2024-03-23T11:30:13;1002.1;;;8.0;100.0
73316;BME280;61545;53.726;-0.444;2024-03-23T11:35:25;1002.3;;;7.8;100.0
73316;BME280;61545;53.726;-0.444;2024-03-23T11:40:19;1002.3;;;7.6;100.0
73316;BME280;61545;53.726;-0.444;2024-03-23T11:45:12;1002.1;;;8.0;100.0
73316;BME280;61545;53.726;-0.444;2024-03-23T11:50:19;1002.2;;;8.4;100.0
73316;BME280;61545;53.726;-0.444;2024-03-23T11:55:11;1002.1;;;8.6;100.0
73316;BME280;61545;53.726;-0.444;2024-03-23T12:00:27;1001.9;;;8.2;100.0
73316;BME280;61545;53.726;-0.444;2024-03-23T12:05:15;1001.9;;;7.9;100.0
73316;BME280;61545;53.726;-0.444;2024-03-23T12:10:11;1001.9;;;7.4;100.0
73316;BME280;61545;53.726;-0.444;2024-03-23T12:15:11;1001.8;;;7.7;100.0
73316;BME280;61545;53.726;-0.444;2024-03-23T12:20:11;1001.8;;;8.0;100.0
73316;BME280;61545;53.726;-0.444;2024-03-23T12:25:11;1001.7;;;unknown;100.0
73316;BME280;61545;53.726;-0.444;2024-03-23T12:30:12;1001.6;;;8.3;100.0
73316;BME280;61545;53.726;-0.444;2024-03-23T12:35:11;1001.5;;;8.4;100.0
73316;BME280;61545;53.726;-0.444;2024-03-23T12:40:11;1001.5;;;8.7;100.0
73316;BME280;61545;53.726;-0.444;2024-03-23T12:45:12;1001.4;;;8.9;100.0
73316;BME280;61545;53.726;-0.444;2024-03-23T12:50:11;1001.3;;;8.9;100.0
73316;BME280;61545;53.726;-0.444;2024-03-23T12:55:11;1001.2;;;8.6;100.0
73316;BME280;61545;53.726;-0.444;2024-03-23T13:00:12;1001.3;;;8.7;100.0
73316;BME280;61545;53.726;-0.444;2024-03-23T13:05:11;1001.2;;;9.1;100.0
73316;BME280;61545;53.726;-0.444;2024-03-23T13:10:11;1001.1;;;9.2;100.0
73316;BME280;61545;53.726;-0.444;2024-03-23T13:15:11;1001.1;;;9.0;100.0
73316;BME280;61545;53.726;-0.444;2024-03-23T13:20:11;1001.1;;;9.1;100.0
73316;BME280;61545;53.726;-0.444;2024-03-23T13:25:11;1001.1;;;9.3;100.0
73316;BME280;61545;53.726;-0.444;2024-03-23T13:30:12;1001.0;;;9.1;100.0
73316;BME280;61545;53.726;-0.444;2024-03-23T13:35:11;1001.0;;;9.3;100.0
73316;BME280;61545;53.726;-0.444;2024-03-23T13:40:12;1001.1;;;9.5;100.0
73316;BME280;61545;53.726;-0.444;2024-03-23T13:45:11;1001.0;;;9.5;100.0
73316;BME280;61545;53.726;-0.444;2024-03-23T13:50:12;1000.8;;;9.5;100.0
73316;BME280;61545;53.726;-0.444;2024-03-23T13:55:12;1000.9;;;9.3;100.0
73316;BME280;61545;53.726;-0.444;2024-03-23T14:00:12;1000.9;;;9.0;100.0
73316;BME280;61545;53.726;-0.444;2024-03-23T14:05:11;1000.8;;;9.0;100.0
73316;BME280;61545;53.726;-0.444;2024-03-23T14:10:11;1000.9;;;8.8;100.0
73316;BME280;61545;53.726;-0.444;2024-03-23T14:15:11;1000.9;;;8.7;100.0
73316;BME280;61545;53.726;-0.444;2024-03-23T14:20:12;1001.0;;;8.6;100.0
73316;BME280;61545;53.726;-0.444;2024-03-23T14:25:11;1001.0;;;8.5;100.0
73316;BME280;61545;53.726;-0.444;2024-03-23T14:30:12;1001.1;;;8.4;100.0
73316;BME280;61545;53.726;-0.444;2024-03-23T14:35:11;1001.1;;;8.8;100.0
73316;BME280;61545;53.726;-0.444;2024-03-23T14:40:12;1001.2;;;8.7;100.0
73316;BME280;61545;53.726;-0.444;2024-03-23T14:45:11;1001.3;;;8.6;100.0
73316;BME280;61545;53.726;-0.444;2024-03-23T14:50:11;1001.2;;;8.5;100.0
73316;BME280;61545;53.726;-0.444;2024-03-23T14:55:11;1001.2;;;8.4;100.0
73316;BME280;61545;53.726;-0.444;2024-03-23T15:00:12;1001.2;;;8.3;100.0
73316;BME280;61545;53.726;-0.444;2024-03-23T15:05:11;1001.0;;;8.3;100.0
73316;BME280;61545;53.726;-0.444;2024-03-23T15:10:11;1001.0;;;8.2;100.0
73316;BME280;61545;53.726;-0.444;2024-03-23T15:15:11;1001.0;;;8.2;100.0
73316;BME280;61545;53.726;-0.444;2024-03-23T15:20:11;1000.9;;;8.2;100.0
73316;BME280;61545;53.726;-0.444;2024-03-23T15:25:12;1001.0;;;8.2;100.0
73316;BME280;61545;53.726;-0.444;2024-03-23T15:30:12;1001.2;;;8.1;100.0
73316;BME280;61545;53.726;-0.444;2024-03-23T15:35:11;1001.2;;;8.2;100.0
73316;BME280;61545;53.726;-0.444;2024-03-23T15:40:12;1001.2;;;8.2;100.0
73316;BME280;61545;53.726;-0.444;2024-03-23T15:45:11;1001.2;;;8.2;100.0
73316;BME280;61545;53.726;-0.444;2024-03-23T15:50:11;1001.2;;;8.1;100.0
73316;BME280;61545;53.726;-0.444;2024-03-23T15:55:11;1001.2;;;8.0;100.0
73316;BME280;61545;53.726;-0.444;2024-03-23T16:00:13;1001.3;;;8.0;100.0
73316;BME280;61545;53.726;-0.444;2024-03-23T16:05:11;1001.2;;;8.1;100.0
73316;BME280;61545;53.726;-0.444;2024-03-23T16:10:11;1001.2;;;8.0;100.0
73316;BME280;61545;53.726;-0.444;2024-03-23T16:15:11;1001.2;;;7.9;100.0
73316;BME280;61545;53.726;-0.444;2024-03-23T16:20:12;1001.1;;;7.9;100.0
73316;BME280;61545;53.726;-0.444;2024-03-23T16:25:11;1000.9;;;7.9;100.0
73316;BME280;61545;53.726;-0.444;2024-03-23T16:30:13;1000.9;;;7.9;100.0
73316;BME280;61545;53.726;-0.444;2024-03-23T16:35:12;1000.9;;;7.9;100.0
73316;BME280;61545;53.726;-0.444;2024-03-23T16:40:12;1000.9;;;7.9;100.0
73316;BME280;61545;53.726;-0.444;2024-03-23T16:45:11;1000.9;;;7.8;100.0
73316;BME280;61545;53.726;-0.444;2024-03-23T16:50:11;1000.8;;;7.9;100.0
73316;BME280;61545;53.726;-0.444;2024-03-23T16:55:11;1000.8;;;7.8;100.0
73316;BME280;61545;53.726;-0.444;2024-03-23T17:00:13;1000.9;;;7.8;100.0
73316;BME280;61545;53.726;-0.444;2024-03-23T17:05:11;1000.9;;;7.7;100.0
73316;BME280;61545;53.726;-0.444;2024-03-23T17:10:11;1000.9;;;7.6;100.0
73316;BME280;61545;53.726;-0.444;2024-03-23T17:15:11;1001.0;;;7.5;100.0
73316;BME280;61545;53.726;-0.444;2024-03-23T17:20:11;1000.9;;;7.5;100.0
73316;BME280;61545;53.726;-0.444;2024-03-23T17:25:11;1000.9;;;7.5;100.0
73316;BME280;61545;53.726;-0.444;2024-03-23T17:30:13;1000.9;;;7.5;100.0
73316;BME280;61545;53.726;-0.444;2024-03-23T17:35:11;1000.7;;;7.5;100.0
73316;BME280;61545;53.726;-0.444;2024-03-23T17:40:11;1000.7;;;7.5;100.0
73316;BME280;61545;53.726;-0.444;2024-03-23T17:45:11;1000.7;;;7.6;100.0
73316;BME280;61545;53.726;-0.444;2024-03-23T17:50:11;1000.8;;;7.6;100.0
73316;BME280;61545;53.726;-0.444;2024-03-23T17:55:11;1000.7;;;7.6;100.0
73316;BME280;61545;53.726;-0.444;2024-03-23T18:00:13;1000.8;;;7.6;100.0
73316;BME280;61545;53.726;-0.444;2024-03-23T18:05:11;1000.9;;;7.5;100.0
73316;BME280;61545;53.726;-0.444;2024-03-23T18:10:11;1000.8;;;7.5;100.0
73316;BME280;61545;53.726;-0.444;2024-03-23T18:15:12;1000.8;;;7.5;100.0
73316;BME280;61545;53.726;-0.444;2024-03-23T18:20:11;1000.7;;;7.5;100.0
73316;BME280;61545;53.726;-0.444;2024-03-23T18:25:11;1000.8;;;7.4;100.0
73316;BME280;61545;53.726;-0.444;2024-03-23T18:30:12;1000.7;;;7.4;100.0
73316;BME280;61545;53.726;-0.444;2024-03-23T18:35:11;1000.7;;;7.3;100.0
73316;BME280;61545;53.726;-0.444;2024-03-23T18:40:11;1000.7;;;7.3;100.0
73316;BME280;61545;53.726;-0.444;2024-03-23T18:45:11;1000.7;;;7.3;100.0
73316;BME280;61545;53.726;-0.444;2024-03-23T18:50:11;1000.7;;;7.2;100.0
73316;BME280;61545;53.726;-0.444;2024-03-23T18:55:11;1000.7;;;7.2;100.0
73316;BME280;61545;53.726;-0.444;2024-03-23T19:00:13;1000.8;;;7.2;100.0
73316;BME280;61545;53.726;-0.444;2024-03-23T19:05:11;1000.8;;;7.2;100.0
73316;BME280;61545;53.726;-0.444;2024-03-23T19:10:11;1000.8;;;7.2;100.0
73316;BME280;61545;53.726;-0.444;2024-03-23T19:15:11;1000.8;;;7.1;100.0
73316;BME280;61545;53.726;-0.444;2024-03-23T19:20:11;1000.8;;;7.1;100.0
73316;BME280;61545;53.726;-0.444;2024-03-23T19:25:11;1000.8;;;7.2;100.0
73316;BME280;61545;53.726;-0.444;2024-03-23T19:30:12;1000.9;;;7.1;100.0
73316;BME280;61545;53.726;-0.444;2024-03-23T19:35:11;1000.9;;;7.1;100.0
73316;BME280;61545;53.726;-0.444;2024-03-23T19:40:12;1000.8;;;7.2;100.0
73316;BME280;61545;53.726;-0.444;2024-03-23T19:45:11;1000.8;;;7.2;100.0
73316;BME280;61545;53.726;-0.444;2024-03-23T19:50:11;1000.8;;;7.2;100.0
73316;BME280;61545;53.726;-0.444;2024-03-23T19:55:11;1000.7;;;7.2;100.0
73316;BME280;61545;53.726;-0.444;2024-03-23T20:00:13;1000.6;;;7.2;100.0
73316;BME280;61545;53.726;-0.444;2024-03-23T20:05:11;1000.5;;;7.2;100.0
73316;BME280;61545;53.726;-0.444;2024-03-23T20:10:11;1000.4;;;7.2;100.0
73316;BME280;61545;53.726;-0.444;2024-03-23T20:15:11;1000.5;;;7.2;100.0
73316;BME280;61545;53.726;-0.444;2024-03-23T20:20:11;1000.5;;;7.2;100.0
73316;BME280;61545;53.726;-0.444;2024-03-23T20:25:11;1000.5;;;7.2;100.0
73316;BME280;61545;53.726;-0.444;2024-03-23T20:30:12;1000.5;;;7.2;100.0
73316;BME280;61545;53.726;-0.444;2024-03-23T20:35:11;1000.4;;;7.1;100.0
73316;BME280;61545;53.726;-0.444;2024-03-23T20:40:11;1000.5;;;7.1;100.0
73316;BME280;61545;53.726;-0.444;2024-03-23T20:45:11;1000.5;;;7.0;100.0
73316;BME280;61545;53.726;-0.444;2024-03-23T20:50:11;1000.6;;;6.9;100.0
73316;BME280;61545;53.726;-0.444;2024-03-23T20:55:11;1000.5;;;6.9;100.0
73316;BME280;61545;53.726;-0.444;2024-03-23T21:00:13;1000.5;;;6.9;100.0
73316;BME280;61545;53.726;-0.444;2024-03-23T21:05:11;1000.6;;;6.8;100.0
73316;BME280;61545;53.726;-0.444;2024-03-23T21:10:11;1000.6;;;6.9;100.0
73316;BME280;61545;53.726;-0.444;2024-03-23T21:15:11;1000.6;;;6.9;100.0
73316;BME280;61545;53.726;-0.444;2024-03-23T21:20:12;1000.5;;;6.8;100.0
73316;BME280;61545;53.726;-0.444;2024-03-23T21:25:11;1000.6;;;6.8;100.0
73316;BME280;61545;53.726;-0.444;2024-03-23T21:30:11;1000.6;;;6.8;100.0
73316;BME280;61545;53.726;-0.444;2024-03-23T21:35:11;1000.6;;;6.7;100.0
73316;BME280;61545;53.726;-0.444;2024-03-23T21:40:11;1000.6;;;6.7;100.0
73316;BME280;61545;53.726;-0.444;2024-03-23T21:45:11;1000.6;;;6.8;100.0
73316;BME280;61545;53.726;-0.444;2024-03-23T21:50:12;1000.7;;;6.7;100.0
73316;BME280;61545;53.726;-0.444;2024-03-23T21:55:11;1000.7;;;6.7;100.0
73316;BME280;61545;53.726;-0.444;2024-03-23T22:00:13;1000.7;;;6.6;100.0
73316;BME280;61545;53.726;-0.444;2024-03-23T22:05:11;1000.7;;;6.6;100.0
73316;BME280;61545;53.726;-0.444;2024-03-23T22:10:11;1000.6;;;6.6;100.0
73316;BME280;61545;53.726;-0.444;2024-03-23T22:15:11;1000.6;;;6.5;100.0
73316;BME280;61545;53.726;-0.444;2024-03-23T22:20:11;1000.7;;;6.5;100.0
73316;BME280;61545;53.726;-0.444;2024-03-23T22:25:12;1000.6;;;6.4;100.0
73316;BME280;61545;53.726;-0.444;2024-03-23T22:30:12;1000.7;;;6.4;100.0
73316;BME280;61545;53.726;-0.444;2024-03-23T22:35:12;1000.7;;;6.4;100.0
73316;BME280;61545;53.726;-0.444;2024-03-23T22:40:12;1000.8;;;unknown;100.0
73316;BME280;61545;53.726;-0.444;2024-03-23T22:45:11;1000.7;;;6.3;100.0
73316;BME280;61545;53.726;-0.444;2024-03-23T22:50:11;1000.7;;;6.3;100.0
73316;BME280;61545;53.726;-0.444;2024-03-23T22:55:12;1000.8;;;6.3;100.0
73316;BME280;61545;53.726;-0.444;2024-03-23T23:00:13;1000.7;;;6.3;100.0
73316;BME280;61545;53.726;-0.444;2024-03-23T23:05:11;1000.8;;;6.3;100.0
73316;BME280;61545;53.726;-0.444;2024-03-23T23:10:12;1000.7;;;6.3;100.0
73316;BME280;61545;53.726;-0.444;2024-03-23T23:15:11;1000.8;;;6.2;100.0
73316;BME280;61545;53.726;-0.444;2024-03-23T23:20:11;1000.8;;;6.2;100.0
73316;BME280;61545;53.726;-0.444;2024-03-23T23:25:11;1000.9;;;6.2;100.0
73316;BME280;61545;53.726;-0.444;2024-03-23T23:30:12;1001.0;;;6.2;100.0
73316;BME280;61545;53.726;-0.444;2024-03-23T23:35:12;1001.0;;;6.2;100.0
73316;BME280;61545;53.726;-0.444;2024-03-23T23:40:11;1001.1;;;6.1;100.0
73316;BME280;61545;53.726;-0.444;2024-03-23T23:45:11;1001.0;;;6.1;100.0
73316;BME280;61545;53.726;-0.444;2024-03-23T23:50:11;1001.1;;;6.0;100.0
73316;BME280;61545;53.726;-0.444;2024-03-23T23:55:11;1001.0;;;6.0;100.0
